sensor_id;sensor_type;location;lat;lon;timestamp;pressure;altitude;pressure_sealevel;temperature;humidity
23677;BME280;31493;49.058;12.190;2024-01-07T00:01:33;95307.56;;;2.27;100.00
23677;BME280;31493;49.058;12.190;2024-01-07T00:04:00;95307.34;;;2.32;100.00
23677;BME280;31493;49.058;12.190;2024-01-07T00:06:27;95305.47;;;2.18;100.00
23677;BME280;31493;49.058;12.190;2024-01-07T00:08:54;95306.16;;;2.21;100.00
23677;BME280;31493;49.058;12.190;2024-01-07T00:11:23;95305.34;;;2.37;100.00
23677;BME280;31493;49.058;12.190;2024-01-07T00:13:50;95313.03;;;2.37;100.00
23677;BME280;31493;49.058;12.190;2024-01-07T00:16:17;95316.56;;;2.34;100.00
23677;BME280;31493;49.058;12.190;2024-01-07T00:18:44;95318.94;;;2.21;100.00
23677;BME280;31493;49.058;12.190;2024-01-07T00:21:11;95318.31;;;2.34;100.00
23677;BME280;31493;49.058;12.190;2024-01-07T00:23:38;95310.53;;;2.19;100.00
23677;BME280;31493;49.058;12.190;2024-01-07T00:26:05;95320.19;;;2.30;100.00
23677;BME280;31493;49.058;12.190;2024-01-07T00:28:34;95307.38;;;2.30;100.00
23677;BME280;31493;49.058;12.190;2024-01-07T00:31:01;95314.94;;;2.33;100.00
23677;BME280;31493;49.058;12.190;2024-01-07T00:33:28;95315.31;;;2.26;100.00
23677;BME280;31493;49.058;12.190;2024-01-07T00:35:55;95309.94;;;2.30;100.00
23677;BME280;31493;49.058;12.190;2024-01-07T00:38:22;95305.81;;;2.28;100.00
23677;BME280;31493;49.058;12.190;2024-01-07T00:40:49;95313.22;;;2.16;100.00
23677;BME280;31493;49.058;12.190;2024-01-07T00:43:16;95321.84;;;2.31;100.00
23677;BME280;31493;49.058;12.190;2024-01-07T00:45:45;95317.34;;;2.19;100.00
23677;BME280;31493;49.058;12.190;2024-01-07T00:48:13;95318.94;;;2.21;100.00
23677;BME280;31493;49.058;12.190;2024-01-07T00:50:40;95316.97;;;2.27;100.00
23677;BME280;31493;49.058;12.190;2024-01-07T00:53:07;95321.41;;;2.23;100.00
23677;BME280;31493;49.058;12.190;2024-01-07T00:55:34;95330.66;;;2.26;100.00
23677;BME280;31493;49.058;12.190;2024-01-07T00:58:02;95317.63;;;2.30;100.00
23677;BME280;31493;49.058;12.190;2024-01-07T01:00:29;95318.53;;;2.29;100.00
23677;BME280;31493;49.058;12.190;2024-01-07T01:02:57;95324.47;;;2.30;100.00
23677;BME280;31493;49.058;12.190;2024-01-07T01:05:26;95330.69;;;2.08;100.00
23677;BME280;31493;49.058;12.190;2024-01-07T01:07:53;95331.63;;;2.23;100.00
23677;BME280;31493;49.058;12.190;2024-01-07T01:10:20;95331.81;;;2.20;100.00
23677;BME280;31493;49.058;12.190;2024-01-07T01:12:47;95339.41;;;2.04;100.00
23677;BME280;31493;49.058;12.190;2024-01-07T01:15:14;95343.53;;;2.24;100.00
23677;BME280;31493;49.058;12.190;2024-01-07T01:17:42;95333.84;;;2.13;100.00
23677;BME280;31493;49.058;12.190;2024-01-07T01:20:11;95335.94;;;2.22;100.00
23677;BME280;31493;49.058;12.190;2024-01-07T01:22:38;95331.94;;;2.17;100.00
23677;BME280;31493;49.058;12.190;2024-01-07T01:25:06;95344.97;;;2.12;100.00
23677;BME280;31493;49.058;12.190;2024-01-07T01:27:33;95341.06;;;2.05;100.00
23677;BME280;31493;49.058;12.190;2024-01-07T01:30:00;95346.75;;;2.28;100.00
23677;BME280;31493;49.058;12.190;2024-01-07T01:32:27;95339.53;;;2.18;100.00
23677;BME280;31493;49.058;12.190;2024-01-07T01:34:54;95349.13;;;2.15;100.00
23677;BME280;31493;49.058;12.190;2024-01-07T01:37:22;95343.41;;;2.10;100.00
23677;BME280;31493;49.058;12.190;2024-01-07T01:39:49;95347.69;;;2.09;100.00
23677;BME280;31493;49.058;12.190;2024-01-07T01:42:16;95351.47;;;2.02;100.00
23677;BME280;31493;49.058;12.190;2024-01-07T01:44:43;95341.59;;;1.94;100.00
23677;BME280;31493;49.058;12.190;2024-01-07T01:47:11;95342.88;;;2.03;100.00
23677;BME280;31493;49.058;12.190;2024-01-07T01:49:39;95341.88;;;2.06;100.00
23677;BME280;31493;49.058;12.190;2024-01-07T01:52:06;95351.81;;;1.94;100.00
23677;BME280;31493;49.058;12.190;2024-01-07T01:54:34;95348.13;;;2.00;100.00
23677;BME280;31493;49.058;12.190;2024-01-07T01:57:02;95347.31;;;2.00;100.00
23677;BME280;31493;49.058;12.190;2024-01-07T01:59:29;95346.78;;;1.93;100.00
23677;BME280;31493;49.058;12.190;2024-01-07T02:01:56;95341.59;;;1.94;100.00
23677;BME280;31493;49.058;12.190;2024-01-07T02:04:23;95339.78;;;1.79;100.00
23677;BME280;31493;49.058;12.190;2024-01-07T02:06:50;95338.75;;;1.83;100.00
23677;BME280;31493;49.058;12.190;2024-01-07T02:09:17;95346.19;;;1.88;100.00
23677;BME280;31493;49.058;12.190;2024-01-07T02:14:38;95355.22;;;1.95;100.00
23677;BME280;31493;49.058;12.190;2024-01-07T02:17:06;95358.28;;;1.67;100.00
23677;BME280;31493;49.058;12.190;2024-01-07T02:19:33;95357.97;;;1.73;100.00
23677;BME280;31493;49.058;12.190;2024-01-07T02:22:00;95348.66;;;1.72;100.00
23677;BME280;31493;49.058;12.190;2024-01-07T02:24:28;95344.13;;;1.42;100.00
23677;BME280;31493;49.058;12.190;2024-01-07T02:26:56;95359.25;;;1.47;100.00
23677;BME280;31493;49.058;12.190;2024-01-07T02:29:23;95350.84;;;1.80;100.00
23677;BME280;31493;49.058;12.190;2024-01-07T02:31:50;95355.72;;;1.67;100.00
23677;BME280;31493;49.058;12.190;2024-01-07T02:34:17;95354.66;;;1.54;100.00
23677;BME280;31493;49.058;12.190;2024-01-07T02:36:44;95348.72;;;1.53;100.00
23677;BME280;31493;49.058;12.190;2024-01-07T02:39:11;95364.44;;;1.46;100.00
23677;BME280;31493;49.058;12.190;2024-01-07T02:41:39;95353.22;;;1.48;100.00
23677;BME280;31493;49.058;12.190;2024-01-07T02:44:06;95346.00;;;1.56;100.00
23677;BME280;31493;49.058;12.190;2024-01-07T02:46:33;95353.59;;;1.40;100.00
23677;BME280;31493;49.058;12.190;2024-01-07T02:49:00;95356.00;;;1.43;100.00
23677;BME280;31493;49.058;12.190;2024-01-07T02:51:27;95356.72;;;1.28;100.00
23677;BME280;31493;49.058;12.190;2024-01-07T02:53:54;95356.66;;;1.30;100.00
23677;BME280;31493;49.058;12.190;2024-01-07T02:56:21;95350.25;;;1.38;100.00
23677;BME280;31493;49.058;12.190;2024-01-07T02:58:49;95355.63;;;1.34;100.00
23677;BME280;31493;49.058;12.190;2024-01-07T03:01:17;95366.13;;;1.28;100.00
23677;BME280;31493;49.058;12.190;2024-01-07T03:03:44;95354.78;;;1.14;100.00
23677;BME280;31493;49.058;12.190;2024-01-07T03:06:11;95359.13;;;1.31;100.00
23677;BME280;31493;49.058;12.190;2024-01-07T03:08:38;95355.28;;;1.23;100.00
23677;BME280;31493;49.058;12.190;2024-01-07T03:11:05;95356.13;;;1.04;100.00
23677;BME280;31493;49.058;12.190;2024-01-07T03:13:32;95358.81;;;1.01;100.00
23677;BME280;31493;49.058;12.190;2024-01-07T03:16:01;95350.25;;;1.02;100.00
23677;BME280;31493;49.058;12.190;2024-01-07T03:18:28;95361.97;;;1.06;100.00
23677;BME280;31493;49.058;12.190;2024-01-07T03:20:54;95367.84;;;1.08;100.00
23677;BME280;31493;49.058;12.190;2024-01-07T03:23:21;95366.19;;;1.07;100.00
23677;BME280;31493;49.058;12.190;2024-01-07T03:25:48;95372.34;;;1.03;100.00
23677;BME280;31493;49.058;12.190;2024-01-07T03:28:15;95373.38;;;0.99;100.00
23677;BME280;31493;49.058;12.190;2024-01-07T03:30:42;95365.78;;;0.98;100.00
23677;BME280;31493;49.058;12.190;2024-01-07T03:33:10;95364.81;;;1.00;100.00
23677;BME280;31493;49.058;12.190;2024-01-07T03:35:37;95363.25;;;0.98;100.00
23677;BME280;31493;49.058;12.190;2024-01-07T03:38:04;95377.19;;;1.09;100.00
23677;BME280;31493;49.058;12.190;2024-01-07T03:40:31;95368.44;;;1.13;100.00
23677;BME280;31493;49.058;12.190;2024-01-07T03:42:58;95365.28;;;1.08;100.00
23677;BME280;31493;49.058;12.190;2024-01-07T03:45:26;95373.28;;;1.01;100.00
23677;BME280;31493;49.058;12.190;2024-01-07T03:47:53;95373.38;;;0.99;100.00
23677;BME280;31493;49.058;12.190;2024-01-07T03:50:21;95371.72;;;0.98;100.00
23677;BME280;31493;49.058;12.190;2024-01-07T03:52:48;95381.50;;;0.88;100.00
23677;BME280;31493;49.058;12.190;2024-01-07T03:55:15;95379.03;;;0.87;100.00
23677;BME280;31493;49.058;12.190;2024-01-07T03:57:43;95387.13;;;0.97;100.00
23677;BME280;31493;49.058;12.190;2024-01-07T04:00:10;95388.63;;;1.01;100.00
23677;BME280;31493;49.058;12.190;2024-01-07T04:02:38;95387.88;;;0.99;100.00
23677;BME280;31493;49.058;12.190;2024-01-07T04:05:05;95392.69;;;0.67;100.00
23677;BME280;31493;49.058;12.190;2024-01-07T04:07:34;95405.19;;;0.92;100.00
23677;BME280;31493;49.058;12.190;2024-01-07T04:10:01;95403.72;;;0.68;100.00
23677;BME280;31493;49.058;12.190;2024-01-07T04:12:28;95403.84;;;0.83;100.00
23677;BME280;31493;49.058;12.190;2024-01-07T04:14:55;95381.22;;;0.57;100.00
23677;BME280;31493;49.058;12.190;2024-01-07T04:17:23;95408.19;;;0.81;100.00
23677;BME280;31493;49.058;12.190;2024-01-07T04:19:50;95414.38;;;0.57;100.00
23677;BME280;31493;49.058;12.190;2024-01-07T04:22:17;95406.59;;;0.60;100.00
23677;BME280;31493;49.058;12.190;2024-01-07T04:24:45;95411.78;;;0.77;100.00
23677;BME280;31493;49.058;12.190;2024-01-07T04:27:12;95410.69;;;0.44;100.00
23677;BME280;31493;49.058;12.190;2024-01-07T04:29:39;95397.22;;;0.40;100.00
23677;BME280;31493;49.058;12.190;2024-01-07T04:32:06;95406.88;;;0.33;100.00
23677;BME280;31493;49.058;12.190;2024-01-07T04:34:33;95420.56;;;0.51;100.00
23677;BME280;31493;49.058;12.190;2024-01-07T04:37:00;95425.63;;;0.32;100.00
23677;BME280;31493;49.058;12.190;2024-01-07T04:39:27;95417.00;;;0.35;100.00
23677;BME280;31493;49.058;12.190;2024-01-07T04:41:55;95423.25;;;0.28;100.00
23677;BME280;31493;49.058;12.190;2024-01-07T04:44:23;95420.63;;;0.09;100.00
23677;BME280;31493;49.058;12.190;2024-01-07T04:46:50;95422.75;;;0.20;100.00
23677;BME280;31493;49.058;12.190;2024-01-07T04:49:17;95433.25;;;0.32;100.00
23677;BME280;31493;49.058;12.190;2024-01-07T04:51:44;95422.16;;;0.33;100.00
23677;BME280;31493;49.058;12.190;2024-01-07T04:54:11;95431.69;;;0.30;100.00
23677;BME280;31493;49.058;12.190;2024-01-07T04:56:38;95434.28;;;0.08;100.00
23677;BME280;31493;49.058;12.190;2024-01-07T04:59:06;95437.78;;;0.26;100.00
23677;BME280;31493;49.058;12.190;2024-01-07T05:01:33;95433.28;;;0.12;100.00
23677;BME280;31493;49.058;12.190;2024-01-07T05:04:01;95434.41;;;0.05;100.00
23677;BME280;31493;49.058;12.190;2024-01-07T05:06:28;95441.31;;;0.23;100.00
23677;BME280;31493;49.058;12.190;2024-01-07T05:08:55;95443.53;;;0.31;100.00
23677;BME280;31493;49.058;12.190;2024-01-07T05:11:22;95443.84;;;0.23;100.00
23677;BME280;31493;49.058;12.190;2024-01-07T05:13:49;95448.72;;;0.29;100.00
23677;BME280;31493;49.058;12.190;2024-01-07T05:16:20;95448.72;;;0.29;100.00
23677;BME280;31493;49.058;12.190;2024-01-07T05:18:47;95441.41;;;-0.00;100.00
23677;BME280;31493;49.058;12.190;2024-01-07T05:21:15;95444.63;;;0.25;100.00
23677;BME280;31493;49.058;12.190;2024-01-07T05:23:41;95451.47;;;0.03;100.00
23677;BME280;31493;49.058;12.190;2024-01-07T05:26:08;95454.81;;;0.25;100.00
23677;BME280;31493;49.058;12.190;2024-01-07T05:28:36;95443.97;;;-0.00;100.00
23677;BME280;31493;49.058;12.190;2024-01-07T05:31:03;95448.56;;;0.12;100.00
23677;BME280;31493;49.058;12.190;2024-01-07T05:33:32;95451.19;;;0.11;100.00
23677;BME280;31493;49.058;12.190;2024-01-07T05:35:59;95456.56;;;0.03;100.00
23677;BME280;31493;49.058;12.190;2024-01-07T05:38:26;95447.19;;;0.03;100.00
23677;BME280;31493;49.058;12.190;2024-01-07T05:40:53;95455.00;;;0.21;100.00
23677;BME280;31493;49.058;12.190;2024-01-07T05:43:20;95465.50;;;0.13;100.00
23677;BME280;31493;49.058;12.190;2024-01-07T05:45:47;95469.91;;;0.10;100.00
23677;BME280;31493;49.058;12.190;2024-01-07T05:48:14;95464.63;;;0.14;100.00
23677;BME280;31493;49.058;12.190;2024-01-07T05:50:42;95463.28;;;0.05;100.00
23677;BME280;31493;49.058;12.190;2024-01-07T05:53:09;95479.25;;;0.09;100.00
23677;BME280;31493;49.058;12.190;2024-01-07T05:55:36;95472.59;;;0.27;100.00
23677;BME280;31493;49.058;12.190;2024-01-07T05:58:04;95469.16;;;0.28;100.00
23677;BME280;31493;49.058;12.190;2024-01-07T06:00:31;95467.41;;;0.08;100.00
23677;BME280;31493;49.058;12.190;2024-01-07T06:02:58;95474.88;;;0.13;100.00
23677;BME280;31493;49.058;12.190;2024-01-07T06:05:25;95474.06;;;0.12;100.00
23677;BME280;31493;49.058;12.190;2024-01-07T06:07:53;95465.66;;;0.30;100.00
23677;BME280;31493;49.058;12.190;2024-01-07T06:10:20;95462.31;;;0.28;100.00
23677;BME280;31493;49.058;12.190;2024-01-07T06:12:47;95484.84;;;0.19;100.00
23677;BME280;31493;49.058;12.190;2024-01-07T06:15:14;95478.44;;;0.08;100.00
23677;BME280;31493;49.058;12.190;2024-01-07T06:17:41;95473.91;;;0.15;100.00
23677;BME280;31493;49.058;12.190;2024-01-07T06:20:09;95466.47;;;0.11;100.00
23677;BME280;31493;49.058;12.190;2024-01-07T06:22:36;95465.50;;;0.13;100.00
23677;BME280;31493;49.058;12.190;2024-01-07T06:25:05;95484.06;;;0.17;100.00
23677;BME280;31493;49.058;12.190;2024-01-07T06:27:33;95490.69;;;0.21;100.00
23677;BME280;31493;49.058;12.190;2024-01-07T06:30:00;95487.63;;;0.13;100.00
23677;BME280;31493;49.058;12.190;2024-01-07T06:32:27;95483.59;;;0.07;100.00
23677;BME280;31493;49.058;12.190;2024-01-07T06:34:54;95488.63;;;0.08;100.00
23677;BME280;31493;49.058;12.190;2024-01-07T06:37:21;95489.22;;;0.15;100.00
23677;BME280;31493;49.058;12.190;2024-01-07T06:39:48;95493.97;;;0.02;100.00
23677;BME280;31493;49.058;12.190;2024-01-07T06:42:16;95498.16;;;0.25;100.00
23677;BME280;31493;49.058;12.190;2024-01-07T06:44:43;95481.53;;;0.17;100.00
23677;BME280;31493;49.058;12.190;2024-01-07T06:47:10;95497.19;;;0.28;100.00
23677;BME280;31493;49.058;12.190;2024-01-07T06:49:37;95505.63;;;0.30;100.00
23677;BME280;31493;49.058;12.190;2024-01-07T06:52:05;95500.81;;;0.22;100.00
23677;BME280;31493;49.058;12.190;2024-01-07T06:54:32;95500.81;;;0.22;100.00
23677;BME280;31493;49.058;12.190;2024-01-07T06:56:59;95503.63;;;0.16;100.00
23677;BME280;31493;49.058;12.190;2024-01-07T06:59:28;95509.94;;;0.07;100.00
23677;BME280;31493;49.058;12.190;2024-01-07T07:01:55;95513.66;;;0.21;100.00
23677;BME280;31493;49.058;12.190;2024-01-07T07:04:22;95508.97;;;0.10;100.00
23677;BME280;31493;49.058;12.190;2024-01-07T07:06:49;95521.19;;;0.24;100.00
23677;BME280;31493;49.058;12.190;2024-01-07T07:09:17;95516.13;;;0.22;100.00
23677;BME280;31493;49.058;12.190;2024-01-07T07:11:44;95521.44;;;0.18;100.00
23677;BME280;31493;49.058;12.190;2024-01-07T07:14:11;95519.72;;;0.18;100.00
23677;BME280;31493;49.058;12.190;2024-01-07T07:16:40;95528.28;;;0.16;100.00
23677;BME280;31493;49.058;12.190;2024-01-07T07:19:07;95520.53;;;0.19;100.00
23677;BME280;31493;49.058;12.190;2024-01-07T07:21:34;95525.84;;;-0.08;100.00
23677;BME280;31493;49.058;12.190;2024-01-07T07:24:01;95526.69;;;0.13;100.00
23677;BME280;31493;49.058;12.190;2024-01-07T07:26:28;95543.06;;;0.07;100.00
23677;BME280;31493;49.058;12.190;2024-01-07T07:28:55;95540.75;;;0.23;100.00
23677;BME280;31493;49.058;12.190;2024-01-07T07:31:22;95539.63;;;0.08;100.00
23677;BME280;31493;49.058;12.190;2024-01-07T07:33:50;95544.72;;;0.08;100.00
23677;BME280;31493;49.058;12.190;2024-01-07T07:36:17;95554.81;;;0.12;100.00
23677;BME280;31493;49.058;12.190;2024-01-07T07:38:44;95558.50;;;0.04;100.00
23677;BME280;31493;49.058;12.190;2024-01-07T07:41:11;95563.69;;;0.01;100.00
23677;BME280;31493;49.058;12.190;2024-01-07T07:43:38;95566.84;;;0.08;100.00
23677;BME280;31493;49.058;12.190;2024-01-07T07:46:05;95549.78;;;-0.12;100.00
23677;BME280;31493;49.058;12.190;2024-01-07T07:48:32;95557.84;;;-0.01;100.00
23677;BME280;31493;49.058;12.190;2024-01-07T07:51:01;95559.13;;;0.10;100.00
23677;BME280;31493;49.058;12.190;2024-01-07T07:53:28;95562.03;;;0.22;100.00
23677;BME280;31493;49.058;12.190;2024-01-07T07:55:55;95560.25;;;-0.20;100.00
23677;BME280;31493;49.058;12.190;2024-01-07T07:58:22;95565.16;;;-0.15;100.00
23677;BME280;31493;49.058;12.190;2024-01-07T08:00:49;95570.75;;;-0.05;100.00
23677;BME280;31493;49.058;12.190;2024-01-07T08:03:16;95569.13;;;-0.30;100.00
23677;BME280;31493;49.058;12.190;2024-01-07T08:05:43;95577.50;;;-0.26;100.00
23677;BME280;31493;49.058;12.190;2024-01-07T08:08:12;95570.22;;;-0.13;100.00
23677;BME280;31493;49.058;12.190;2024-01-07T08:10:39;95579.09;;;-0.24;100.00
23677;BME280;31493;49.058;12.190;2024-01-07T08:13:06;95584.06;;;-0.21;100.00
23677;BME280;31493;49.058;12.190;2024-01-07T08:15:33;95579.69;;;-0.17;100.00
23677;BME280;31493;49.058;12.190;2024-01-07T08:18:01;95582.16;;;-0.37;100.00
23677;BME280;31493;49.058;12.190;2024-01-07T08:20:28;95587.78;;;-0.29;100.00
23677;BME280;31493;49.058;12.190;2024-01-07T08:22:55;95591.31;;;-0.33;100.00
23677;BME280;31493;49.058;12.190;2024-01-07T08:25:23;95598.34;;;-0.16;100.00
23677;BME280;31493;49.058;12.190;2024-01-07T08:27:50;95606.53;;;-0.08;100.00
23677;BME280;31493;49.058;12.190;2024-01-07T08:30:17;95590.41;;;-0.31;100.00
23677;BME280;31493;49.058;12.190;2024-01-07T08:32:44;95591.22;;;-0.30;100.00
23677;BME280;31493;49.058;12.190;2024-01-07T08:35:11;95600.16;;;-0.42;100.00
23677;BME280;31493;49.058;12.190;2024-01-07T08:37:38;95612.44;;;-0.53;100.00
23677;BME280;31493;49.058;12.190;2024-01-07T08:40:06;95608.16;;;-0.29;100.00
23677;BME280;31493;49.058;12.190;2024-01-07T08:42:36;95627.09;;;-0.60;100.00
23677;BME280;31493;49.058;12.190;2024-01-07T08:45:04;95624.19;;;-0.49;100.00
23677;BME280;31493;49.058;12.190;2024-01-07T08:47:32;95629.09;;;-0.68;100.00
23677;BME280;31493;49.058;12.190;2024-01-07T08:49:59;95626.81;;;-0.52;100.00
23677;BME280;31493;49.058;12.190;2024-01-07T08:52:26;95625.59;;;-0.65;100.00
23677;BME280;31493;49.058;12.190;2024-01-07T08:54:53;95635.25;;;-0.50;100.00
23677;BME280;31493;49.058;12.190;2024-01-07T08:57:21;95642.09;;;-0.52;100.00
23677;BME280;31493;49.058;12.190;2024-01-07T08:59:49;95635.25;;;-0.50;100.00
23677;BME280;31493;49.058;12.190;2024-01-07T09:02:16;95646.72;;;-0.87;100.00
23677;BME280;31493;49.058;12.190;2024-01-07T09:04:43;95651.22;;;-0.70;100.00
23677;BME280;31493;49.058;12.190;2024-01-07T09:07:10;95650.91;;;-0.61;100.00
23677;BME280;31493;49.058;12.190;2024-01-07T09:09:37;95658.69;;;-0.65;100.00
23677;BME280;31493;49.058;12.190;2024-01-07T09:12:05;95660.09;;;-0.57;100.00
23677;BME280;31493;49.058;12.190;2024-01-07T09:14:32;95667.47;;;-0.49;100.00
23677;BME280;31493;49.058;12.190;2024-01-07T09:17:00;95670.75;;;-0.70;100.00
23677;BME280;31493;49.058;12.190;2024-01-07T09:19:28;95667.69;;;-0.80;100.00
23677;BME280;31493;49.058;12.190;2024-01-07T09:21:55;95671.22;;;-0.84;100.00
23677;BME280;31493;49.058;12.190;2024-01-07T09:24:22;95676.94;;;-0.78;100.00
23677;BME280;31493;49.058;12.190;2024-01-07T09:26:49;95675.16;;;-0.76;100.00
23677;BME280;31493;49.058;12.190;2024-01-07T09:29:17;95686.09;;;-0.72;100.00
23677;BME280;31493;49.058;12.190;2024-01-07T09:31:44;95679.56;;;-1.06;100.00
23677;BME280;31493;49.058;12.190;2024-01-07T09:34:13;95686.94;;;-0.98;100.00
23677;BME280;31493;49.058;12.190;2024-01-07T09:36:41;95679.75;;;-0.85;100.00
23677;BME280;31493;49.058;12.190;2024-01-07T09:39:08;95681.28;;;-1.06;100.00
23677;BME280;31493;49.058;12.190;2024-01-07T09:41:35;95692.81;;;-0.96;100.00
23677;BME280;31493;49.058;12.190;2024-01-07T09:44:03;95674.78;;;-1.15;100.00
23677;BME280;31493;49.058;12.190;2024-01-07T09:46:31;95689.81;;;-0.82;100.00
23677;BME280;31493;49.058;12.190;2024-01-07T09:48:59;95672.72;;;-1.30;100.00
23677;BME280;31493;49.058;12.190;2024-01-07T09:51:28;95688.63;;;-0.97;100.00
23677;BME280;31493;49.058;12.190;2024-01-07T09:53:58;95684.38;;;-1.23;100.00
23677;BME280;31493;49.058;12.190;2024-01-07T09:56:35;95673.06;;;-1.41;100.00
23677;BME280;31493;49.058;12.190;2024-01-07T09:59:05;95673.84;;;-1.39;100.00
23677;BME280;31493;49.058;12.190;2024-01-07T10:01:34;95649.84;;;-1.30;100.00
23677;BME280;31493;49.058;12.190;2024-01-07T10:04:01;95684.00;;;-1.39;100.00
23677;BME280;31493;49.058;12.190;2024-01-07T10:06:30;95691.13;;;-1.22;100.00
23677;BME280;31493;49.058;12.190;2024-01-07T10:08:58;95684.00;;;-1.39;100.00
23677;BME280;31493;49.058;12.190;2024-01-07T10:11:25;95679.81;;;-1.40;100.00
23677;BME280;31493;49.058;12.190;2024-01-07T10:13:53;95691.38;;;-1.31;100.00
23677;BME280;31493;49.058;12.190;2024-01-07T10:16:20;95706.00;;;-1.10;100.00
23677;BME280;31493;49.058;12.190;2024-01-07T10:18:47;95695.66;;;-1.32;100.00
23677;BME280;31493;49.058;12.190;2024-01-07T10:21:14;95692.31;;;-1.07;100.00
23677;BME280;31493;49.058;12.190;2024-01-07T10:23:43;95698.19;;;-1.32;100.00
23677;BME280;31493;49.058;12.190;2024-01-07T10:26:10;95704.41;;;-1.14;100.00
23677;BME280;31493;49.058;12.190;2024-01-07T10:28:37;95712.09;;;-1.15;100.00
23677;BME280;31493;49.058;12.190;2024-01-07T10:31:06;95711.47;;;-1.22;100.00
23677;BME280;31493;49.058;12.190;2024-01-07T10:33:33;95714.41;;;-1.08;100.00
23677;BME280;31493;49.058;12.190;2024-01-07T10:36:02;95715.28;;;-1.09;100.00
23677;BME280;31493;49.058;12.190;2024-01-07T10:38:30;95718.06;;;-1.16;100.00
23677;BME280;31493;49.058;12.190;2024-01-07T10:41:00;95704.47;;;-0.89;100.00
23677;BME280;31493;49.058;12.190;2024-01-07T10:43:28;95722.06;;;-0.83;100.00
23677;BME280;31493;49.058;12.190;2024-01-07T10:46:00;95709.31;;;-0.81;100.00
23677;BME280;31493;49.058;12.190;2024-01-07T10:48:30;95707.06;;;-1.17;100.00
23677;BME280;31493;49.058;12.190;2024-01-07T10:50:59;95722.03;;;-1.08;100.00
23677;BME280;31493;49.058;12.190;2024-01-07T10:53:28;95700.97;;;-1.39;100.00
23677;BME280;31493;49.058;12.190;2024-01-07T10:56:02;95718.66;;;-1.35;100.00
23677;BME280;31493;49.058;12.190;2024-01-07T10:58:32;95716.63;;;-1.23;100.00
23677;BME280;31493;49.058;12.190;2024-01-07T11:00:59;95712.59;;;-1.31;100.00
23677;BME280;31493;49.058;12.190;2024-01-07T11:03:35;95718.09;;;-1.44;100.00
23677;BME280;31493;49.058;12.190;2024-01-07T11:06:08;95722.72;;;-1.29;100.00
23677;BME280;31493;49.058;12.190;2024-01-07T11:08:41;95715.22;;;-1.34;100.00
23677;BME280;31493;49.058;12.190;2024-01-07T11:11:15;95727.72;;;-1.54;100.00
23677;BME280;31493;49.058;12.190;2024-01-07T11:13:43;95720.84;;;-1.80;100.00
23677;BME280;31493;49.058;12.190;2024-01-07T11:16:10;95725.31;;;-1.31;100.00
23677;BME280;31493;49.058;12.190;2024-01-07T11:18:38;95738.34;;;-1.41;100.00
23677;BME280;31493;49.058;12.190;2024-01-07T11:21:06;95736.34;;;-1.60;100.00
23677;BME280;31493;49.058;12.190;2024-01-07T11:23:34;95744.00;;;-1.60;100.00
23677;BME280;31493;49.058;12.190;2024-01-07T11:26:03;95744.13;;;-1.64;100.00
23677;BME280;31493;49.058;12.190;2024-01-07T11:28:45;95730.34;;;-1.57;100.00
23677;BME280;31493;49.058;12.190;2024-01-07T11:31:14;95737.19;;;-1.89;100.00
23677;BME280;31493;49.058;12.190;2024-01-07T11:33:42;95730.31;;;-1.85;100.00
23677;BME280;31493;49.058;12.190;2024-01-07T11:36:10;95743.16;;;-1.60;100.00
23677;BME280;31493;49.058;12.190;2024-01-07T11:38:41;95733.00;;;-1.60;100.00
23677;BME280;31493;49.058;12.190;2024-01-07T11:41:09;95731.81;;;-1.78;100.00
23677;BME280;31493;49.058;12.190;2024-01-07T11:43:37;95737.41;;;-1.67;100.00
23677;BME280;31493;49.058;12.190;2024-01-07T11:46:06;95742.50;;;-1.67;100.00
23677;BME280;31493;49.058;12.190;2024-01-07T11:48:33;95742.22;;;-1.58;100.00
23677;BME280;31493;49.058;12.190;2024-01-07T11:51:00;95744.16;;;-1.66;100.00
23677;BME280;31493;49.058;12.190;2024-01-07T11:53:27;95744.88;;;-1.90;100.00
23677;BME280;31493;49.058;12.190;2024-01-07T11:55:54;95744.81;;;-1.89;100.00
23677;BME280;31493;49.058;12.190;2024-01-07T11:58:21;95753.22;;;-1.57;100.00
23677;BME280;31493;49.058;12.190;2024-01-07T12:00:48;95752.91;;;-1.46;100.00
23677;BME280;31493;49.058;12.190;2024-01-07T12:03:17;95755.47;;;-1.76;100.00
23677;BME280;31493;49.058;12.190;2024-01-07T12:05:44;95751.34;;;-1.80;100.00
23677;BME280;31493;49.058;12.190;2024-01-07T12:08:14;95766.13;;;-1.63;100.00
23677;BME280;31493;49.058;12.190;2024-01-07T12:10:41;95756.09;;;-1.97;100.00
23677;BME280;31493;49.058;12.190;2024-01-07T12:13:08;95771.06;;;-1.59;100.00
23677;BME280;31493;49.058;12.190;2024-01-07T12:15:37;95759.84;;;-1.81;100.00
23677;BME280;31493;49.058;12.190;2024-01-07T12:18:05;95768.28;;;-1.79;100.00
23677;BME280;31493;49.058;12.190;2024-01-07T12:20:33;95761.66;;;-1.85;100.00
23677;BME280;31493;49.058;12.190;2024-01-07T12:23:07;95752.50;;;-1.90;100.00
23677;BME280;31493;49.058;12.190;2024-01-07T12:25:34;95757.19;;;-2.08;100.00
23677;BME280;31493;49.058;12.190;2024-01-07T12:28:01;95756.75;;;-1.92;100.00
23677;BME280;31493;49.058;12.190;2024-01-07T12:30:28;95772.19;;;-1.98;100.00
23677;BME280;31493;49.058;12.190;2024-01-07T12:32:56;95768.63;;;-1.91;100.00
23677;BME280;31493;49.058;12.190;2024-01-07T12:35:25;95762.22;;;-1.75;100.00
23677;BME280;31493;49.058;12.190;2024-01-07T12:37:53;95773.09;;;-1.70;100.00
23677;BME280;31493;49.058;12.190;2024-01-07T12:40:21;95765.56;;;-1.73;100.00
23677;BME280;31493;49.058;12.190;2024-01-07T12:42:50;95772.81;;;-1.90;100.00
23677;BME280;31493;49.058;12.190;2024-01-07T12:45:17;95782.31;;;-1.97;100.00
23677;BME280;31493;49.058;12.190;2024-01-07T12:47:44;95774.72;;;-1.98;100.00
23677;BME280;31493;49.058;12.190;2024-01-07T12:50:13;95781.06;;;-1.82;100.00